createdAt,value
2017-12-04T00:00:06.313Z,0.32
2017-12-04T00:01:11.419Z,0.30
2017-12-04T00:02:16.545Z,0.46
2017-12-04T00:03:21.844Z,0.63
2017-12-04T00:04:26.840Z,0.55
2017-12-04T00:05:32.040Z,0.64
2017-12-04T00:06:37.227Z,0.46
2017-12-04T00:07:42.643Z,0.40
2017-12-04T00:08:47.677Z,0.36
2017-12-04T00:09:52.887Z,0.35
2017-12-04T00:10:57.660Z,0.33
2017-12-04T00:12:02.412Z,0.32
2017-12-04T00:13:08.748Z,0.34
2017-12-04T00:14:14.369Z,0.53
2017-12-04T00:15:19.000Z,0.49
2017-12-04T00:16:23.976Z,0.34
2017-12-04T00:17:29.095Z,0.35
2017-12-04T00:18:34.359Z,0.52
2017-12-04T00:19:39.599Z,0.44
2017-12-04T00:20:45.187Z,0.47
2017-12-04T00:21:49.866Z,0.36
2017-12-04T00:22:55.386Z,0.38
2017-12-04T00:24:00.675Z,0.36
2017-12-04T00:25:05.520Z,0.36
2017-12-04T00:26:10.849Z,0.44
2017-12-04T00:27:21.888Z,0.42
2017-12-04T00:28:27.670Z,0.37
2017-12-04T00:29:33.042Z,0.47
2017-12-04T00:30:37.807Z,0.35
2017-12-04T00:31:42.468Z,0.42
2017-12-04T00:32:47.262Z,0.55
2017-12-04T00:33:52.135Z,0.47
2017-12-04T00:34:57.458Z,0.47
2017-12-04T00:36:02.707Z,0.46
2017-12-04T00:37:07.504Z,0.68
2017-12-04T00:38:12.313Z,0.51
2017-12-04T00:39:17.132Z,0.60
2017-12-04T00:40:22.030Z,0.64
2017-12-04T00:41:27.069Z,0.62
2017-12-04T00:42:32.165Z,0.61
2017-12-04T00:43:37.902Z,0.59
2017-12-04T00:44:42.647Z,0.66
2017-12-04T00:45:47.936Z,0.72
2017-12-04T00:46:52.763Z,0.65
2017-12-04T00:47:58.413Z,0.65
2017-12-04T00:49:03.888Z,0.65
2017-12-04T00:50:08.596Z,1.33
2017-12-04T00:51:14.463Z,1.12
2017-12-04T00:52:19.753Z,1.16
2017-12-04T00:53:24.721Z,0.94
2017-12-04T00:54:29.841Z,1.09
2017-12-04T00:55:34.548Z,0.83
2017-12-04T00:56:39.474Z,0.86
2017-12-04T00:57:44.337Z,0.89
2017-12-04T00:58:49.072Z,1.05
2017-12-04T00:59:54.232Z,1.00
2017-12-04T01:00:59.302Z,1.15
2017-12-04T01:02:05.162Z,1.26
2017-12-04T01:03:13.090Z,1.16
2017-12-04T01:04:18.332Z,1.24
2017-12-04T01:05:23.840Z,1.39
2017-12-04T01:06:28.952Z,-144.44
2017-12-04T01:07:34.710Z,-144.44
2017-12-04T01:08:40.186Z,-144.44
2017-12-04T01:09:45.341Z,-144.44
2017-12-04T01:10:50.820Z,-144.44
2017-12-04T01:11:56.280Z,-144.44
2017-12-04T01:13:01.388Z,-144.44
2017-12-04T01:14:07.842Z,-144.44
2017-12-04T01:15:14.305Z,-144.44
2017-12-04T01:16:19.582Z,-144.44
2017-12-04T01:17:24.839Z,-144.44
2017-12-04T01:18:29.913Z,-144.44
2017-12-04T01:19:35.495Z,-144.44
2017-12-04T01:20:41.135Z,-144.44
2017-12-04T01:21:46.287Z,-144.44
2017-12-04T01:22:52.645Z,-144.44
2017-12-04T01:23:58.132Z,-144.44
2017-12-04T01:25:05.494Z,-144.44
2017-12-04T01:26:10.636Z,-144.44
2017-12-04T01:27:15.630Z,-144.44
2017-12-04T01:38:22.784Z,-144.44
2017-12-04T01:39:28.088Z,-144.44
2017-12-04T01:43:28.691Z,-144.44
2017-12-04T01:44:33.638Z,-144.44
2017-12-04T01:45:39.070Z,-144.44
2017-12-04T01:46:44.295Z,-144.44
2017-12-04T01:47:49.494Z,-144.44
2017-12-04T01:48:54.461Z,-144.44
2017-12-04T01:49:59.654Z,-144.44
2017-12-04T01:51:04.649Z,-144.44
2017-12-04T01:52:09.699Z,-144.44
2017-12-04T01:53:14.536Z,-144.44
2017-12-04T01:54:19.510Z,-144.44
2017-12-04T01:55:24.233Z,-144.44
2017-12-04T01:56:29.630Z,-144.44
2017-12-04T01:57:34.298Z,-144.44
2017-12-04T01:58:39.280Z,-144.44
2017-12-04T01:59:43.954Z,-144.44
2017-12-04T02:00:48.816Z,-144.44
2017-12-04T02:01:53.539Z,-144.44
2017-12-04T02:02:58.364Z,-144.44
2017-12-04T02:04:03.075Z,-144.44
2017-12-04T02:05:08.250Z,-144.44
2017-12-04T02:06:12.932Z,-144.44
2017-12-04T02:07:19.548Z,-144.44
2017-12-04T02:08:24.266Z,-144.44
2017-12-04T02:09:29.096Z,-144.44
2017-12-04T02:10:33.923Z,-144.44
2017-12-04T02:11:38.985Z,-144.44
2017-12-04T02:12:43.833Z,-144.44
2017-12-04T02:13:48.610Z,-144.44
2017-12-04T02:15:00.021Z,-144.44
2017-12-04T02:16:04.866Z,-144.44
2017-12-04T02:17:09.703Z,-144.44
2017-12-04T02:18:14.698Z,-144.44
2017-12-04T02:19:19.387Z,-144.44
2017-12-04T02:20:24.101Z,-144.44
2017-12-04T02:21:28.883Z,-144.44
2017-12-04T02:22:33.720Z,-144.44
2017-12-04T02:23:38.463Z,-144.44
2017-12-04T02:24:43.556Z,-144.44
2017-12-04T02:25:48.296Z,-144.44
2017-12-04T02:26:53.200Z,-144.44
2017-12-04T02:27:57.995Z,-144.44
2017-12-04T02:29:02.771Z,-144.44
2017-12-04T02:30:07.584Z,-144.44
2017-12-04T02:31:12.967Z,-144.44
2017-12-04T02:32:17.683Z,-144.44
2017-12-04T02:33:22.236Z,-144.44
2017-12-04T02:34:26.866Z,-144.44
2017-12-04T02:35:31.506Z,-144.44
2017-12-04T02:36:36.212Z,-144.44
2017-12-04T02:37:41.299Z,-144.44
2017-12-04T02:38:46.000Z,-144.44
2017-12-04T02:39:50.683Z,-144.44
2017-12-04T02:40:55.453Z,-144.44
2017-12-04T02:42:00.122Z,-144.44
2017-12-04T02:43:04.960Z,-144.44
2017-12-04T02:44:09.954Z,-144.44
2017-12-04T02:45:14.703Z,-144.44
2017-12-04T02:46:19.502Z,-144.44
2017-12-04T02:47:24.384Z,-144.44
2017-12-04T02:48:29.283Z,-144.44
2017-12-04T02:49:33.980Z,-144.44
2017-12-04T02:50:39.272Z,-144.44
2017-12-04T02:51:43.972Z,-144.44
2017-12-04T02:52:48.857Z,-144.44
2017-12-04T02:53:53.824Z,-144.44
2017-12-04T02:54:58.616Z,-144.44
2017-12-04T02:56:03.502Z,-144.44
2017-12-04T02:57:08.626Z,-144.44
2017-12-04T02:58:13.324Z,-144.44
2017-12-04T02:59:18.047Z,-144.44
2017-12-04T03:00:22.722Z,-144.44
2017-12-04T03:01:27.398Z,-144.44
2017-12-04T03:02:32.171Z,-144.44
2017-12-04T03:03:37.190Z,-144.44
2017-12-04T03:04:41.919Z,-144.44
2017-12-04T03:05:46.610Z,-144.44
2017-12-04T03:06:51.254Z,-144.44
2017-12-04T03:07:55.923Z,-144.44
2017-12-04T03:09:00.557Z,-144.44
2017-12-04T03:10:05.481Z,-144.44
2017-12-04T03:11:10.207Z,-144.44
2017-12-04T03:12:14.899Z,-144.44
2017-12-04T03:13:19.568Z,-144.44
2017-12-04T03:14:24.393Z,-144.44
2017-12-04T03:15:29.035Z,-144.44
2017-12-04T03:16:34.124Z,-144.44
2017-12-04T03:17:39.084Z,-144.44
2017-12-04T03:18:43.808Z,-144.44
2017-12-04T03:19:48.493Z,-144.44
2017-12-04T03:20:53.096Z,-144.44
2017-12-04T03:21:57.864Z,-144.44
2017-12-04T03:23:03.803Z,1.48
2017-12-04T03:24:08.562Z,-144.44
2017-12-04T03:25:13.280Z,-144.44
2017-12-04T03:26:18.010Z,-144.44
2017-12-04T03:27:22.740Z,-144.44
2017-12-04T03:28:27.448Z,-144.44
2017-12-04T03:29:32.439Z,-144.44
2017-12-04T03:30:37.168Z,-144.44
2017-12-04T03:31:41.875Z,-144.44
2017-12-04T03:32:46.568Z,-144.44
2017-12-04T03:33:51.267Z,-144.44
2017-12-04T03:34:56.059Z,-144.44
2017-12-04T03:36:01.045Z,-144.44
2017-12-04T03:37:05.714Z,-144.44
2017-12-04T03:38:10.532Z,-144.44
2017-12-04T03:39:15.235Z,-144.44
2017-12-04T03:40:19.975Z,-144.44
2017-12-04T03:41:24.698Z,-144.44
2017-12-04T03:42:29.739Z,-144.44
2017-12-04T03:43:34.499Z,-144.44
2017-12-04T03:44:39.244Z,-144.44
2017-12-04T03:45:44.128Z,-144.44
2017-12-04T03:46:48.868Z,-144.44
2017-12-04T03:47:53.680Z,-144.44
2017-12-04T03:48:58.881Z,-144.44
2017-12-04T03:50:03.698Z,-144.44
2017-12-04T03:51:08.432Z,-144.44
2017-12-04T03:52:13.253Z,-144.44
2017-12-04T03:53:17.931Z,-144.44
2017-12-04T03:54:22.783Z,-144.44
2017-12-04T03:55:27.736Z,-144.44
2017-12-04T03:56:32.527Z,-144.44
2017-12-04T03:57:37.323Z,-144.44
2017-12-04T03:58:42.099Z,-144.44
2017-12-04T03:59:46.882Z,-144.44
2017-12-04T04:00:52.323Z,-144.44
2017-12-04T04:01:57.404Z,-144.44
2017-12-04T04:03:02.215Z,-144.44
2017-12-04T04:04:07.005Z,-144.44
2017-12-04T04:05:11.706Z,-144.44
2017-12-04T04:06:16.388Z,-144.44
2017-12-04T04:07:21.084Z,-144.44
2017-12-04T04:08:26.045Z,-144.44
2017-12-04T04:09:30.603Z,-144.44
2017-12-04T04:10:35.168Z,-144.44
2017-12-04T04:11:39.725Z,-144.44
2017-12-04T04:12:44.306Z,-144.44
2017-12-04T04:13:48.870Z,-144.44
2017-12-04T04:14:53.891Z,-144.44
2017-12-04T04:15:58.626Z,-144.44
2017-12-04T04:17:03.303Z,-144.44
2017-12-04T04:18:08.030Z,-144.44
2017-12-04T04:19:12.724Z,-144.44
2017-12-04T04:20:18.186Z,-144.44
2017-12-04T04:21:22.898Z,-144.44
2017-12-04T04:22:27.632Z,-144.44
2017-12-04T04:23:32.350Z,-144.44
2017-12-04T04:24:37.059Z,-144.44
2017-12-04T04:25:41.789Z,-144.44
2017-12-04T04:26:46.786Z,-144.44
2017-12-04T04:27:51.479Z,-144.44
2017-12-04T04:28:56.185Z,-144.44
2017-12-04T04:30:00.958Z,-144.44
2017-12-04T04:31:05.715Z,-144.44
2017-12-04T04:32:10.419Z,-144.44
2017-12-04T04:33:15.476Z,-144.44
2017-12-04T04:34:20.240Z,-144.44
2017-12-04T04:35:24.975Z,-144.44
2017-12-04T04:36:29.750Z,-144.44
2017-12-04T04:37:34.452Z,-144.44
2017-12-04T04:38:39.156Z,-144.44
2017-12-04T04:39:44.183Z,-144.44
2017-12-04T04:40:48.875Z,-144.44
2017-12-04T04:41:53.558Z,-144.44
2017-12-04T04:42:58.272Z,-144.44
2017-12-04T04:44:03.019Z,-144.44
2017-12-04T04:45:07.714Z,-144.44
2017-12-04T04:46:12.411Z,-144.44
2017-12-04T04:47:17.181Z,-144.44
2017-12-04T04:48:21.939Z,-144.44
2017-12-04T04:49:26.643Z,-144.44
2017-12-04T04:50:31.354Z,-144.44
2017-12-04T04:51:36.216Z,-144.44
2017-12-04T04:52:41.125Z,-144.44
2017-12-04T04:53:45.929Z,-144.44
2017-12-04T04:54:50.750Z,-144.44
2017-12-04T04:55:55.469Z,-144.44
2017-12-04T04:57:00.243Z,-144.44
2017-12-04T04:58:05.239Z,-144.44
2017-12-04T04:59:10.003Z,-144.44
2017-12-04T05:00:14.763Z,-144.44
2017-12-04T05:01:19.529Z,-144.44
2017-12-04T05:02:24.248Z,-144.44
2017-12-04T05:03:28.932Z,-144.44
2017-12-04T05:04:33.938Z,-144.44
2017-12-04T05:05:39.729Z,-144.44
2017-12-04T05:06:44.449Z,-144.44
2017-12-04T05:07:49.280Z,-144.44
2017-12-04T05:08:53.990Z,-144.44
2017-12-04T05:09:58.719Z,-144.44
2017-12-04T05:11:03.723Z,-144.44
2017-12-04T05:12:08.419Z,-144.44
2017-12-04T05:13:13.235Z,-144.44
2017-12-04T05:14:18.008Z,-144.44
2017-12-04T05:15:22.798Z,-144.44
2017-12-04T05:16:27.530Z,-144.44
2017-12-04T05:17:32.512Z,-144.44
2017-12-04T05:18:37.254Z,-144.44
2017-12-04T05:19:42.058Z,-144.44
2017-12-04T05:20:46.890Z,-144.44
2017-12-04T05:21:51.624Z,-144.44
2017-12-04T05:22:56.385Z,-144.44
2017-12-04T05:24:01.530Z,-144.44
2017-12-04T05:25:06.269Z,-144.44
2017-12-04T05:26:11.003Z,-144.44
2017-12-04T05:27:15.715Z,-144.44
2017-12-04T05:28:20.588Z,-144.44
2017-12-04T05:29:25.333Z,-144.44
2017-12-04T05:30:30.313Z,-144.44
2017-12-04T05:31:35.119Z,-144.44
2017-12-04T05:32:39.821Z,-144.44
2017-12-04T05:33:44.540Z,-144.44
2017-12-04T05:34:49.227Z,-144.44
2017-12-04T05:35:54.024Z,-144.44
2017-12-04T05:36:59.151Z,-144.44
2017-12-04T05:38:03.991Z,-144.44
2017-12-04T05:39:08.915Z,-144.44
2017-12-04T05:40:13.641Z,-144.44
2017-12-04T05:41:18.513Z,-144.44
2017-12-04T05:42:23.346Z,-144.44
2017-12-04T05:43:28.312Z,-144.44
2017-12-04T05:44:33.158Z,-144.44
2017-12-04T05:45:38.232Z,-144.44
2017-12-04T05:46:43.071Z,-144.44
2017-12-04T05:47:47.848Z,-144.44
2017-12-04T05:48:52.662Z,-144.44
2017-12-04T05:49:57.851Z,-144.44
2017-12-04T05:51:03.556Z,-144.44
2017-12-04T05:52:08.452Z,-144.44
2017-12-04T05:53:13.151Z,-144.44
2017-12-04T05:54:17.888Z,-144.44
2017-12-04T05:55:22.704Z,-144.44
2017-12-04T05:56:27.998Z,-144.44
2017-12-04T05:57:32.824Z,-144.44
2017-12-04T05:58:37.740Z,-144.44
2017-12-04T05:59:42.543Z,-144.44
2017-12-04T06:00:47.200Z,-144.44
2017-12-04T06:01:51.885Z,-144.44
2017-12-04T06:02:57.042Z,-144.44
2017-12-04T06:04:01.755Z,-144.44
2017-12-04T06:05:06.449Z,-144.44
2017-12-04T06:06:11.104Z,-144.44
2017-12-04T06:07:15.924Z,-144.44
2017-12-04T06:08:20.766Z,-144.44
2017-12-04T06:09:25.864Z,-144.44
2017-12-04T06:10:30.834Z,-144.44
2017-12-04T06:11:35.596Z,-144.44
2017-12-04T06:12:40.393Z,-144.44
2017-12-04T06:13:45.244Z,-144.44
2017-12-04T06:14:49.980Z,-144.44
2017-12-04T06:15:55.192Z,-144.44
2017-12-04T06:17:00.019Z,-144.44
2017-12-04T10:11:39.891Z,2.74
2017-12-04T10:12:44.566Z,2.68
2017-12-04T10:13:49.231Z,2.67
2017-12-04T10:14:53.849Z,2.64
2017-12-04T10:15:59.055Z,2.68
2017-12-04T10:17:04.263Z,2.65
2017-12-04T10:18:09.096Z,2.58
2017-12-04T10:19:13.920Z,2.65
2017-12-04T10:20:18.594Z,2.69
2017-12-04T10:21:23.562Z,2.75
2017-12-04T10:22:28.360Z,2.69
2017-12-04T10:23:33.540Z,2.63
2017-12-04T10:24:38.267Z,2.68
2017-12-04T10:25:43.478Z,2.70
2017-12-04T10:26:48.227Z,2.69
2017-12-04T10:27:52.898Z,2.82
2017-12-04T10:28:57.602Z,2.80
2017-12-04T10:30:02.787Z,2.79
2017-12-04T10:31:07.517Z,2.62
2017-12-04T10:32:13.325Z,2.68
2017-12-04T10:33:17.997Z,2.70
2017-12-04T10:34:22.819Z,2.67
2017-12-04T10:35:27.649Z,2.71
2017-12-04T10:36:32.686Z,2.79
2017-12-04T10:37:37.881Z,2.76
2017-12-04T10:38:42.668Z,2.76
2017-12-04T10:39:47.409Z,2.68
2017-12-04T10:40:52.225Z,2.81
2017-12-04T10:41:56.943Z,2.80
2017-12-04T10:43:02.341Z,2.77
2017-12-04T10:44:07.594Z,2.82
2017-12-04T10:45:12.377Z,2.86
2017-12-04T10:46:17.162Z,2.92
2017-12-04T10:47:22.916Z,2.90
2017-12-04T10:48:27.740Z,2.88
2017-12-04T10:49:33.888Z,2.91
2017-12-04T10:50:38.615Z,2.94
2017-12-04T10:51:43.411Z,2.99
2017-12-04T10:52:48.145Z,2.99
2017-12-04T10:53:52.984Z,2.98
2017-12-04T10:54:57.820Z,3.04
2017-12-04T10:56:03.007Z,2.97
2017-12-04T10:57:07.885Z,3.08
2017-12-04T10:58:12.697Z,3.01
2017-12-04T10:59:17.716Z,3.07
2017-12-04T11:00:22.744Z,3.02
2017-12-04T11:01:27.874Z,3.04
2017-12-04T11:02:33.131Z,3.04
2017-12-04T11:03:37.798Z,3.13
2017-12-04T11:04:42.592Z,3.21
2017-12-04T11:05:47.303Z,3.26
2017-12-04T11:06:52.056Z,3.21
2017-12-04T11:07:56.770Z,3.25
2017-12-04T11:09:02.046Z,3.22
2017-12-04T11:10:06.767Z,3.22
2017-12-04T11:11:11.516Z,3.23
2017-12-04T11:12:16.195Z,3.29
2017-12-04T11:13:20.939Z,3.29
2017-12-04T11:14:25.761Z,3.36
2017-12-04T11:15:30.946Z,3.33
2017-12-04T11:16:35.681Z,3.35
2017-12-04T11:17:40.512Z,3.32
2017-12-04T11:18:45.252Z,3.40
2017-12-04T11:19:49.917Z,3.43
2017-12-04T11:20:54.764Z,3.45
2017-12-04T11:22:00.109Z,3.45
2017-12-04T11:23:04.860Z,3.48
2017-12-04T11:24:09.850Z,3.52
2017-12-04T11:25:14.979Z,3.50
2017-12-04T11:26:27.969Z,3.52
2017-12-04T11:27:34.256Z,3.53
2017-12-04T11:28:39.333Z,3.54
2017-12-04T11:29:44.087Z,3.61
2017-12-04T11:30:48.996Z,3.65
2017-12-04T11:31:54.593Z,3.60
2017-12-04T11:32:59.335Z,3.63
2017-12-04T11:34:04.050Z,3.60
2017-12-04T11:35:09.037Z,3.66
2017-12-04T11:36:13.780Z,3.72
2017-12-04T11:37:18.531Z,3.78
2017-12-04T11:38:23.840Z,3.79
2017-12-04T11:39:28.563Z,3.78
2017-12-04T11:40:33.287Z,3.77
2017-12-04T11:41:38.394Z,3.70
2017-12-04T11:42:43.227Z,3.73
2017-12-04T11:43:47.999Z,3.77
2017-12-04T11:44:52.756Z,3.74
2017-12-04T11:45:58.163Z,3.75
2017-12-04T11:47:03.238Z,3.70
2017-12-04T11:48:08.008Z,3.75
2017-12-04T11:49:12.867Z,3.65
2017-12-04T11:50:17.918Z,3.65
2017-12-04T11:51:23.026Z,3.71
2017-12-04T11:52:27.907Z,3.72
2017-12-04T11:53:34.236Z,3.70
2017-12-04T11:54:39.959Z,3.71
2017-12-04T11:55:48.120Z,3.70
2017-12-04T11:56:53.294Z,3.72
2017-12-04T11:57:58.309Z,3.72
2017-12-04T11:59:03.855Z,3.68
2017-12-04T12:00:08.947Z,3.72
2017-12-04T12:01:13.806Z,3.73
2017-12-04T12:02:18.600Z,3.66
2017-12-04T12:03:23.467Z,3.68
2017-12-04T12:04:28.488Z,3.65
2017-12-04T12:05:33.669Z,3.67
2017-12-04T12:06:38.569Z,3.67
2017-12-04T12:07:43.529Z,3.68
2017-12-04T12:08:49.506Z,3.66
2017-12-04T12:09:54.433Z,3.71
2017-12-04T12:10:59.875Z,3.71
2017-12-04T12:12:05.394Z,3.73
2017-12-04T12:13:10.249Z,3.75
2017-12-04T12:14:15.112Z,3.71
2017-12-04T12:15:19.896Z,3.75
2017-12-04T12:16:25.628Z,3.73
2017-12-04T12:17:31.030Z,3.83
2017-12-04T12:18:37.833Z,3.80
2017-12-04T12:19:42.788Z,3.79
2017-12-04T12:20:47.530Z,3.83
2017-12-04T12:21:53.200Z,3.80
2017-12-04T12:22:57.982Z,3.84
2017-12-04T12:24:02.894Z,3.81
2017-12-04T12:25:08.873Z,3.83
2017-12-04T12:26:14.094Z,3.82
2017-12-04T12:27:18.858Z,3.82
2017-12-04T12:28:23.615Z,3.80
2017-12-04T12:29:28.433Z,3.80
2017-12-04T12:30:33.173Z,3.93
2017-12-04T12:31:38.364Z,3.86
2017-12-04T12:32:43.160Z,3.85
2017-12-04T12:33:48.290Z,3.81
2017-12-04T12:34:53.170Z,3.82
2017-12-04T12:35:57.884Z,3.78
2017-12-04T12:37:02.591Z,3.77
2017-12-04T12:38:07.880Z,3.78
2017-12-04T12:39:12.598Z,3.85
2017-12-04T12:40:17.420Z,3.89
2017-12-04T12:41:22.141Z,3.85
2017-12-04T12:42:26.940Z,3.87
2017-12-04T12:43:31.618Z,3.89
2017-12-04T12:44:36.832Z,3.88
2017-12-04T12:45:41.538Z,3.86
2017-12-04T12:46:46.233Z,3.89
2017-12-04T12:47:50.928Z,3.92
2017-12-04T12:48:55.765Z,3.88
2017-12-04T12:50:00.516Z,3.89
2017-12-04T12:51:05.659Z,3.95
2017-12-04T12:52:10.355Z,3.93
2017-12-04T12:53:15.148Z,3.95
2017-12-04T12:54:19.836Z,3.98
2017-12-04T12:55:24.651Z,3.98
2017-12-04T12:56:29.489Z,4.00
2017-12-04T12:57:34.772Z,3.95
2017-12-04T12:58:39.666Z,4.01
2017-12-04T12:59:44.473Z,4.02
2017-12-04T13:00:49.331Z,4.04
2017-12-04T13:01:54.082Z,4.09
2017-12-04T13:02:58.810Z,4.13
2017-12-04T13:04:03.851Z,4.08
2017-12-04T13:05:08.683Z,4.13
2017-12-04T13:06:13.483Z,4.13
2017-12-04T13:07:18.312Z,4.16
2017-12-04T13:08:23.103Z,4.20
2017-12-04T13:09:27.894Z,4.25
2017-12-04T13:10:32.947Z,4.28
2017-12-04T13:11:37.755Z,4.25
2017-12-04T13:12:43.423Z,4.19
2017-12-04T13:13:48.149Z,4.21
2017-12-04T13:14:52.865Z,4.29
2017-12-04T13:15:57.683Z,4.25
2017-12-04T13:17:02.862Z,4.22
2017-12-04T13:18:07.591Z,4.22
2017-12-04T13:19:12.446Z,4.23
2017-12-04T13:20:17.196Z,4.22
2017-12-04T13:21:22.564Z,4.29
2017-12-04T13:22:27.318Z,4.26
2017-12-04T13:23:32.505Z,4.30
2017-12-04T13:24:37.283Z,4.30
2017-12-04T13:25:42.053Z,4.27
2017-12-04T13:26:46.917Z,4.32
2017-12-04T13:27:51.827Z,4.30
2017-12-04T13:28:56.552Z,4.41
2017-12-04T13:30:01.645Z,4.37
2017-12-04T13:31:06.519Z,4.40
2017-12-04T13:32:15.636Z,4.34
2017-12-04T13:34:30.472Z,4.36
2017-12-04T13:36:40.115Z,4.39
2017-12-04T13:37:45.037Z,4.30
2017-12-04T13:38:49.632Z,4.35
2017-12-04T13:39:54.250Z,4.32
2017-12-04T13:40:58.857Z,4.31
2017-12-04T13:42:03.682Z,4.37
2017-12-04T13:43:08.842Z,4.37
2017-12-04T13:44:13.549Z,4.38
2017-12-04T13:45:18.337Z,4.36
2017-12-04T13:46:23.065Z,4.41
2017-12-04T13:47:27.884Z,4.41
2017-12-04T13:48:32.771Z,4.40
2017-12-04T13:49:38.029Z,4.46
2017-12-04T13:50:42.672Z,4.45
2017-12-04T13:51:47.266Z,4.46
2017-12-04T13:52:51.885Z,4.51
2017-12-04T13:53:56.642Z,4.47
2017-12-04T13:55:01.371Z,4.42
2017-12-04T13:56:07.316Z,4.45
2017-12-04T13:57:12.088Z,4.42
2017-12-04T13:58:16.902Z,4.46
2017-12-04T13:59:21.621Z,4.43
2017-12-04T14:00:26.522Z,4.42
2017-12-04T14:01:31.314Z,4.45
2017-12-04T14:02:36.775Z,4.49
2017-12-04T14:03:41.528Z,4.51
2017-12-04T14:04:46.321Z,4.49
2017-12-04T14:05:51.027Z,4.52
2017-12-04T14:06:55.804Z,4.53
2017-12-04T14:08:00.635Z,4.50
2017-12-04T14:09:06.542Z,4.50
2017-12-04T14:10:11.328Z,4.53
2017-12-04T14:11:16.067Z,4.47
2017-12-04T14:12:20.882Z,4.57
2017-12-04T14:13:25.598Z,4.55
2017-12-04T14:14:30.384Z,4.49
2017-12-04T14:15:35.481Z,4.49
2017-12-04T14:16:40.239Z,4.53
2017-12-04T14:17:45.019Z,4.53
2017-12-04T14:18:49.784Z,4.50
2017-12-04T14:19:54.725Z,4.49
2017-12-04T14:20:59.531Z,4.47
2017-12-04T14:22:04.263Z,4.53
2017-12-04T14:23:09.168Z,4.50
2017-12-04T14:24:13.992Z,4.51
2017-12-04T14:25:18.755Z,4.55
2017-12-04T14:26:23.500Z,4.46
2017-12-04T14:27:28.648Z,4.44
2017-12-04T14:28:33.437Z,4.50
2017-12-04T14:29:38.250Z,4.53
2017-12-04T14:30:42.975Z,4.48
2017-12-04T14:31:48.205Z,4.49
2017-12-04T14:32:53.038Z,4.49
2017-12-04T14:33:58.558Z,4.44
2017-12-04T14:35:03.400Z,4.46
2017-12-04T14:36:08.265Z,4.44
2017-12-04T14:37:13.144Z,4.42
2017-12-04T14:38:17.842Z,4.42
2017-12-04T14:39:22.571Z,4.43
2017-12-04T14:40:27.686Z,4.43
2017-12-04T14:41:32.499Z,4.41
2017-12-04T14:42:37.311Z,4.50
2017-12-04T14:43:42.540Z,4.43
2017-12-04T14:44:47.366Z,4.45
2017-12-04T14:45:52.255Z,4.43
2017-12-04T14:46:57.481Z,4.43
2017-12-04T14:48:02.402Z,4.40
2017-12-04T14:49:07.544Z,4.38
2017-12-04T14:50:12.462Z,4.40
2017-12-04T14:51:17.369Z,4.40
2017-12-04T14:52:22.188Z,4.39
2017-12-04T14:53:27.522Z,4.38
2017-12-04T14:54:32.285Z,4.48
2017-12-04T14:55:37.081Z,4.37
2017-12-04T14:56:41.804Z,4.46
2017-12-04T14:57:46.695Z,4.41
2017-12-04T14:58:51.357Z,4.43
2017-12-04T14:59:56.079Z,4.37
2017-12-04T15:01:00.920Z,4.44
2017-12-04T15:02:05.803Z,4.43
2017-12-04T15:03:10.543Z,4.37
2017-12-04T15:04:15.304Z,4.33
2017-12-04T15:05:20.604Z,4.31
2017-12-04T15:06:25.563Z,4.35
2017-12-04T15:07:30.497Z,4.42
2017-12-04T15:08:36.226Z,4.36
2017-12-04T15:09:41.027Z,4.36
2017-12-04T15:10:46.665Z,4.39
2017-12-04T15:11:52.648Z,4.37
2017-12-04T15:12:57.550Z,4.38
2017-12-04T15:14:02.457Z,4.37
2017-12-04T15:15:07.280Z,4.43
2017-12-04T15:16:11.996Z,4.44
2017-12-04T15:17:17.065Z,4.43
2017-12-04T15:18:22.191Z,4.46
2017-12-04T15:19:26.951Z,4.46
2017-12-04T15:20:32.624Z,4.50
2017-12-04T15:21:37.425Z,4.55
2017-12-04T15:22:42.291Z,4.48
2017-12-04T15:23:47.059Z,4.50
2017-12-04T15:24:52.226Z,4.52
2017-12-04T15:25:56.958Z,4.60
2017-12-04T15:27:01.751Z,4.57
2017-12-04T15:28:06.741Z,4.65
2017-12-04T15:29:11.389Z,4.62
2017-12-04T15:30:16.181Z,4.55
2017-12-04T15:31:20.964Z,4.54
2017-12-04T15:32:25.740Z,4.57
2017-12-04T15:33:30.871Z,4.62
2017-12-04T15:34:35.676Z,4.57
2017-12-04T15:35:40.435Z,4.59
2017-12-04T15:36:45.153Z,4.65
2017-12-04T15:37:49.934Z,4.54
2017-12-04T15:38:54.671Z,4.63
2017-12-04T15:39:59.668Z,4.61
2017-12-04T15:41:04.465Z,4.54
2017-12-04T15:42:09.535Z,4.56
2017-12-04T15:43:14.332Z,4.49
2017-12-04T15:44:19.142Z,4.53
2017-12-04T15:45:24.015Z,4.54
2017-12-04T15:46:28.782Z,4.50
2017-12-04T15:47:33.522Z,4.45
2017-12-04T15:48:38.274Z,4.46
2017-12-04T15:49:42.988Z,4.48
2017-12-04T15:50:47.754Z,4.50
2017-12-04T15:51:52.458Z,4.48
2017-12-04T15:52:57.326Z,4.48
2017-12-04T15:54:02.286Z,4.50
2017-12-04T15:55:06.860Z,4.45
2017-12-04T15:56:11.512Z,4.50
2017-12-04T15:57:16.249Z,4.49
2017-12-04T15:58:20.987Z,4.43
2017-12-04T15:59:25.726Z,4.47
2017-12-04T16:00:30.742Z,4.46
2017-12-04T16:01:35.406Z,4.53
2017-12-04T16:02:40.225Z,4.50
2017-12-04T16:03:45.017Z,4.50
2017-12-04T16:04:49.776Z,4.45
2017-12-04T16:05:54.604Z,4.46
2017-12-04T16:06:59.766Z,4.46
2017-12-04T16:08:04.538Z,4.48
2017-12-04T16:09:09.256Z,4.46
2017-12-04T16:10:14.215Z,4.44
2017-12-04T16:11:18.989Z,4.50
2017-12-04T16:12:23.662Z,4.53
2017-12-04T16:13:28.698Z,4.51
2017-12-04T16:14:33.448Z,4.45
2017-12-04T16:15:38.223Z,4.52
2017-12-04T16:16:42.976Z,4.51
2017-12-04T16:17:47.736Z,4.51
2017-12-04T16:18:52.559Z,4.58
2017-12-04T16:19:57.858Z,4.51
2017-12-04T16:21:02.589Z,4.46
2017-12-04T16:22:07.377Z,4.52
2017-12-04T16:23:12.087Z,4.50
2017-12-04T16:24:16.815Z,4.55
2017-12-04T16:25:21.621Z,4.57
2017-12-04T16:26:26.726Z,4.50
2017-12-04T16:27:31.476Z,4.54
2017-12-04T16:28:36.207Z,4.56
2017-12-04T16:29:40.961Z,4.55
2017-12-04T16:30:45.931Z,4.54
2017-12-04T16:31:51.210Z,4.58
2017-12-04T16:32:56.184Z,4.59
2017-12-04T16:34:01.121Z,4.55
2017-12-04T16:35:06.059Z,4.54
2017-12-04T16:36:10.925Z,4.56
2017-12-04T16:37:15.648Z,4.52
2017-12-04T16:38:20.796Z,4.55
2017-12-04T16:39:25.551Z,4.52
2017-12-04T16:40:30.278Z,4.52
2017-12-04T16:41:35.133Z,4.58
2017-12-04T16:42:39.865Z,4.54
2017-12-04T16:43:44.723Z,4.60
2017-12-04T16:44:49.856Z,4.56
2017-12-04T16:45:54.667Z,4.55
2017-12-04T16:46:59.431Z,4.70
2017-12-04T16:48:04.332Z,4.62
2017-12-04T16:49:09.045Z,4.70
2017-12-04T16:50:13.836Z,4.76
2017-12-04T16:51:18.579Z,4.72
2017-12-04T16:52:23.418Z,4.74
2017-12-04T16:53:28.188Z,4.70
2017-12-04T16:54:32.948Z,4.70
2017-12-04T16:55:37.779Z,4.88
2017-12-04T16:56:42.747Z,4.72
2017-12-04T16:57:47.580Z,4.74
2017-12-04T16:58:52.308Z,4.73
2017-12-04T16:59:56.911Z,4.78
2017-12-04T17:01:01.752Z,4.82
2017-12-04T17:02:06.640Z,4.80
2017-12-04T17:03:11.717Z,4.82
2017-12-04T17:04:16.513Z,4.79
2017-12-04T17:05:21.416Z,4.84
2017-12-04T17:06:26.294Z,4.89
2017-12-04T17:07:31.097Z,4.79
2017-12-04T17:08:35.886Z,4.78
2017-12-04T17:09:41.108Z,4.64
2017-12-04T17:10:45.930Z,4.65
2017-12-04T17:11:50.687Z,4.65
2017-12-04T17:12:55.412Z,4.68
2017-12-04T17:14:00.224Z,4.69
2017-12-04T17:15:04.968Z,4.61
2017-12-04T17:16:10.023Z,4.67
2017-12-04T17:17:14.708Z,4.62
2017-12-04T17:18:19.460Z,4.55
2017-12-04T17:19:25.534Z,4.61
2017-12-04T17:20:30.414Z,4.67
2017-12-04T17:21:35.542Z,4.71
2017-12-04T17:22:40.736Z,4.71
2017-12-04T17:23:45.442Z,4.62
2017-12-04T17:24:50.175Z,4.67
2017-12-04T17:25:54.914Z,4.59
2017-12-04T17:26:59.656Z,4.63
2017-12-04T17:28:04.466Z,4.67
2017-12-04T17:29:09.492Z,4.76
2017-12-04T17:30:14.664Z,4.74
2017-12-04T17:31:19.554Z,4.78
2017-12-04T17:32:24.869Z,4.64
2017-12-04T17:33:29.763Z,4.76
2017-12-04T17:34:35.089Z,4.75
2017-12-04T17:35:40.016Z,4.76
2017-12-04T17:36:44.998Z,4.71
2017-12-04T17:37:49.825Z,4.73
2017-12-04T17:38:54.714Z,4.76
2017-12-04T17:39:59.487Z,4.80
2017-12-04T17:41:04.797Z,4.67
2017-12-04T17:42:09.684Z,4.75
2017-12-04T17:43:14.462Z,4.71
2017-12-04T17:44:19.408Z,4.57
2017-12-04T17:45:24.211Z,4.71
2017-12-04T17:46:29.000Z,4.75
2017-12-04T17:47:35.279Z,4.75
2017-12-04T17:48:40.602Z,4.82
2017-12-04T17:49:45.444Z,4.92
2017-12-04T17:50:50.270Z,4.90
2017-12-04T17:51:55.130Z,4.88
2017-12-04T17:53:00.030Z,4.79
2017-12-04T17:54:05.255Z,4.73
2017-12-04T17:55:10.102Z,4.74
2017-12-04T17:56:14.945Z,4.75
2017-12-04T17:57:19.825Z,4.80
2017-12-04T17:58:24.699Z,4.83
2017-12-04T17:59:29.549Z,4.81
2017-12-04T18:00:34.734Z,4.86
2017-12-04T18:01:39.536Z,4.79
2017-12-04T18:02:44.319Z,4.73